Time;durP1;ratioP1;P1;durP2;ratioP2;P2;SDS_P1;SDS_P2;PMS_P1;PMS_P2;Temp;Humidity;BMP_temperature;BMP_pressure;BME280_temperature;BME280_humidity;BME280_pressure;Samples;Min_cycle;Max_cycle;Signal;HPM_P1;HPM_P2
2023/07/30 00:01:42;;;;;;;12.25;3.35;;;16.90;99.90;;;;;;6272960;22;20051;-91
2023/07/30 00:04:08;;;;;;;6.03;3.22;;;16.90;99.90;;;;;;6274277;22;20101;-90
2023/07/30 00:06:33;;;;;;;8.90;3.17;;;16.90;99.90;;;;;;6273068;22;20343;-89
2023/07/30 00:08:59;;;;;;;8.35;3.47;;;16.90;99.90;;;;;;6274541;22;20152;-91
2023/07/30 00:11:25;;;;;;;11.73;3.55;;;16.90;99.90;;;;;;6273760;22;20023;-90
2023/07/30 00:13:50;;;;;;;7.75;3.40;;;16.80;99.90;;;;;;6273990;22;20046;-90
2023/07/30 00:16:16;;;;;;;9.60;3.50;;;16.80;99.90;;;;;;6272363;22;20451;-91
2023/07/30 00:18:42;;;;;;;10.05;3.35;;;16.80;99.90;;;;;;6273194;22;20106;-90
2023/07/30 00:21:08;;;;;;;10.50;3.95;;;16.80;99.90;;;;;;6274474;22;20090;-90
2023/07/30 00:23:33;;;;;;;7.82;3.85;;;16.80;99.90;;;;;;6271710;22;20024;-89
2023/07/30 00:25:59;;;;;;;9.30;3.47;;;16.80;99.90;;;;;;6271492;22;20019;-90
2023/07/30 00:28:25;;;;;;;7.88;3.28;;;16.70;99.90;;;;;;6273048;22;20347;-90
2023/07/30 00:30:50;;;;;;;12.40;3.45;;;16.70;99.90;;;;;;6273806;22;20024;-89
2023/07/30 00:33:16;;;;;;;11.98;3.45;;;16.60;99.90;;;;;;6271168;22;20023;-89
2023/07/30 00:35:42;;;;;;;10.00;3.22;;;16.60;99.90;;;;;;6271582;22;20097;-89
2023/07/30 00:38:07;;;;;;;10.82;3.70;;;16.60;99.90;;;;;;6270992;22;20016;-89
2023/07/30 00:40:38;;;;;;;12.23;3.50;;;16.50;99.90;;;;;;6270256;22;20066;-89
2023/07/30 00:43:04;;;;;;;11.88;3.97;;;16.50;99.90;;;;;;6271239;22;20046;-89
2023/07/30 00:45:30;;;;;;;7.25;3.55;;;16.50;99.90;;;;;;6271147;22;20028;-89
2023/07/30 00:47:56;;;;;;;11.77;3.67;;;16.50;99.90;;;;;;6273107;22;20024;-89
2023/07/30 00:50:22;;;;;;;9.68;3.60;;;16.40;99.90;;;;;;6273334;22;20047;-89
2023/07/30 00:52:48;;;;;;;8.93;3.70;;;16.40;99.90;;;;;;6270734;22;20098;-90
2023/07/30 00:55:15;;;;;;;10.80;3.72;;;16.40;99.90;;;;;;6270688;22;20081;-89
2023/07/30 00:57:42;;;;;;;13.32;4.50;;;16.40;99.90;;;;;;6271440;22;20336;-90
2023/07/30 01:00:09;;;;;;;14.25;4.20;;;16.40;99.90;;;;;;6272876;22;20175;-89
2023/07/30 01:02:36;;;;;;;8.07;3.65;;;16.40;99.90;;;;;;6271367;22;20035;-88
2023/07/30 01:05:03;;;;;;;8.05;3.63;;;16.40;99.90;;;;;;6271631;22;20078;-89
2023/07/30 01:07:30;;;;;;;7.82;2.58;;;16.40;99.90;;;;;;6270314;22;20122;-87
2023/07/30 01:09:56;;;;;;;11.88;3.63;;;16.40;99.90;;;;;;6273010;22;20035;-88
2023/07/30 01:12:23;;;;;;;12.50;3.33;;;16.30;99.90;;;;;;6270713;22;20035;-89
2023/07/30 01:14:49;;;;;;;11.93;3.30;;;16.30;99.90;;;;;;6270991;22;20027;-89
2023/07/30 01:17:16;;;;;;;14.38;4.18;;;16.30;99.90;;;;;;6271437;22;20447;-89
2023/07/30 01:19:41;;;;;;;11.13;3.03;;;16.30;99.90;;;;;;6270977;22;20023;-89
2023/07/30 01:22:07;;;;;;;11.68;4.40;;;16.30;99.90;;;;;;6272102;22;20035;-88
2023/07/30 01:24:33;;;;;;;15.27;4.13;;;16.30;99.90;;;;;;6270865;22;20026;-88
2023/07/30 01:27:05;;;;;;;9.55;3.50;;;16.40;99.90;;;;;;6271201;22;20038;-88
2023/07/30 01:29:31;;;;;;;13.10;3.92;;;16.30;99.90;;;;;;6271237;22;20027;-88
2023/07/30 01:32:04;;;;;;;7.05;2.63;;;16.30;99.90;;;;;;6272555;22;20027;-87
2023/07/30 01:34:34;;;;;;;7.35;3.33;;;16.20;99.90;;;;;;6273248;22;20035;-86
2023/07/30 01:37:00;;;;;;;11.30;3.28;;;16.20;99.90;;;;;;6270355;22;20031;-84
2023/07/30 01:39:26;;;;;;;14.18;3.72;;;16.10;99.90;;;;;;6272563;22;20016;-85
2023/07/30 01:41:54;;;;;;;11.95;3.60;;;16.20;99.90;;;;;;6245703;22;20019;-84
2023/07/30 01:44:20;;;;;;;12.40;3.53;;;16.20;99.90;;;;;;6270485;22;20625;-84
2023/07/30 01:46:45;;;;;;;12.75;3.90;;;16.10;99.90;;;;;;6269943;22;20024;-84
2023/07/30 01:49:11;;;;;;;7.63;3.53;;;16.10;99.90;;;;;;6269767;22;20084;-83
2023/07/30 01:51:37;;;;;;;9.90;3.42;;;16.10;99.90;;;;;;6269534;22;20020;-83
2023/07/30 01:54:03;;;;;;;13.18;3.67;;;16.00;99.90;;;;;;6271782;22;20039;-84
2023/07/30 01:56:28;;;;;;;8.02;2.92;;;16.00;99.90;;;;;;6269980;22;20477;-83
2023/07/30 01:58:54;;;;;;;9.57;3.40;;;16.00;99.90;;;;;;6269893;22;20038;-83
2023/07/30 02:01:20;;;;;;;12.27;3.55;;;16.00;99.90;;;;;;6269995;22;20442;-83
2023/07/30 02:03:46;;;;;;;16.17;3.67;;;16.00;99.90;;;;;;6269753;22;20019;-82
2023/07/30 02:06:12;;;;;;;12.85;2.90;;;16.00;99.90;;;;;;6271285;22;20019;-83
2023/07/30 02:08:37;;;;;;;11.63;3.40;;;15.90;99.90;;;;;;6271102;22;20023;-83
2023/07/30 02:11:03;;;;;;;8.20;3.15;;;16.00;99.90;;;;;;6269812;22;20121;-83
2023/07/30 02:13:29;;;;;;;8.55;3.08;;;15.90;99.90;;;;;;6269379;22;20090;-82
2023/07/30 02:15:55;;;;;;;12.20;3.70;;;15.90;99.90;;;;;;6269488;22;20019;-83
2023/07/30 02:18:21;;;;;;;11.73;3.40;;;15.90;99.90;;;;;;6269686;22;20028;-82
2023/07/30 02:20:46;;;;;;;14.05;3.45;;;15.90;99.90;;;;;;6272968;22;20042;-82
2023/07/30 02:23:15;;;;;;;6.18;3.20;;;15.90;99.90;;;;;;6273650;22;20016;-83
2023/07/30 02:25:41;;;;;;;10.15;3.63;;;15.80;99.90;;;;;;6271629;22;20028;-82
2023/07/30 02:28:07;;;;;;;10.23;3.80;;;15.80;99.90;;;;;;6272068;22;20344;-82
2023/07/30 02:30:33;;;;;;;12.75;3.17;;;15.80;99.90;;;;;;6273589;22;20026;-83
2023/07/30 02:32:59;;;;;;;11.85;3.20;;;15.70;99.90;;;;;;6271437;22;20043;-82
2023/07/30 02:35:25;;;;;;;13.98;3.20;;;15.80;99.90;;;;;;6270984;22;20115;-83
2023/07/30 02:37:51;;;;;;;9.05;3.10;;;15.80;99.90;;;;;;6273598;22;20028;-83
2023/07/30 02:40:17;;;;;;;9.20;3.47;;;15.80;99.90;;;;;;6273650;22;20027;-83
2023/07/30 02:42:42;;;;;;;11.63;3.03;;;15.80;99.90;;;;;;6273429;22;20027;-84
2023/07/30 02:45:08;;;;;;;10.00;2.85;;;15.80;99.90;;;;;;6273248;22;20090;-83
2023/07/30 02:47:34;;;;;;;7.88;3.50;;;15.70;99.90;;;;;;6271235;22;20097;-83
2023/07/30 02:49:59;;;;;;;11.95;3.35;;;15.70;99.90;;;;;;6271748;22;20020;-83
2023/07/30 02:52:25;;;;;;;5.80;3.20;;;15.70;99.90;;;;;;6273254;22;20026;-84
2023/07/30 02:54:51;;;;;;;6.38;2.90;;;15.70;99.90;;;;;;6273158;22;20055;-83
2023/07/30 02:57:17;;;;;;;8.52;3.90;;;15.70;99.90;;;;;;6271609;22;20097;-83
2023/07/30 02:59:42;;;;;;;12.02;3.10;;;15.70;99.90;;;;;;6273307;22;20055;-83
2023/07/30 03:02:08;;;;;;;10.77;3.28;;;15.70;99.90;;;;;;6271281;22;20019;-83
2023/07/30 03:04:34;;;;;;;11.27;2.95;;;15.70;99.90;;;;;;6271042;22;20028;-82
2023/07/30 03:07:00;;;;;;;9.30;3.00;;;15.70;99.90;;;;;;6273206;22;20032;-83
2023/07/30 03:09:27;;;;;;;10.90;2.90;;;15.70;99.90;;;;;;6271537;22;20029;-83
2023/07/30 03:11:53;;;;;;;11.85;3.22;;;15.60;99.90;;;;;;6273765;22;20074;-83
2023/07/30 03:14:21;;;;;;;10.35;2.80;;;15.60;99.90;;;;;;6271485;22;20020;-83
2023/07/30 03:16:48;;;;;;;13.15;3.40;;;15.70;99.90;;;;;;6271096;22;20724;-83
2023/07/30 03:19:14;;;;;;;11.35;2.63;;;15.70;99.90;;;;;;6271145;22;20020;-83
2023/07/30 03:21:40;;;;;;;9.40;2.95;;;15.60;99.90;;;;;;6273156;22;20103;-83
2023/07/30 03:24:05;;;;;;;11.18;2.92;;;15.70;99.90;;;;;;6271354;22;20051;-83
2023/07/30 03:26:31;;;;;;;6.88;2.90;;;15.60;99.90;;;;;;6270509;22;20117;-83
2023/07/30 03:28:57;;;;;;;12.68;3.28;;;15.70;99.90;;;;;;6270707;22;20022;-83
2023/07/30 03:31:23;;;;;;;6.25;2.88;;;15.60;99.90;;;;;;6272363;22;20429;-82
2023/07/30 03:33:48;;;;;;;12.25;4.25;;;15.60;99.90;;;;;;6270694;22;20024;-82
2023/07/30 03:36:14;;;;;;;7.80;2.90;;;15.50;99.90;;;;;;6272990;22;20086;-82
2023/07/30 03:38:43;;;;;;;9.15;3.13;;;15.60;99.90;;;;;;6270985;22;20031;-82
2023/07/30 03:41:10;;;;;;;9.23;3.50;;;15.60;99.90;;;;;;6271043;22;20016;-83
2023/07/30 03:43:36;;;;;;;6.05;2.72;;;15.60;99.90;;;;;;6270696;22;20024;-83
2023/07/30 03:46:02;;;;;;;12.27;4.05;;;15.50;99.90;;;;;;6244951;22;20028;-84
2023/07/30 03:48:28;;;;;;;6.30;3.00;;;15.60;99.90;;;;;;6272478;22;20107;-84
2023/07/30 03:50:55;;;;;;;5.88;2.83;;;15.50;99.90;;;;;;6272583;22;20026;-83
2023/07/30 03:53:21;;;;;;;8.27;4.22;;;15.60;99.90;;;;;;6270729;22;20078;-83
2023/07/30 03:55:47;;;;;;;6.78;3.22;;;15.60;99.90;;;;;;6272366;22;20015;-83
2023/07/30 03:58:13;;;;;;;9.65;3.28;;;15.60;99.90;;;;;;6270444;22;20086;-83
2023/07/30 04:00:39;;;;;;;5.53;3.17;;;15.60;99.90;;;;;;6270293;22;20024;-84
2023/07/30 04:03:05;;;;;;;12.68;3.63;;;15.60;99.90;;;;;;6272215;22;20119;-83
2023/07/30 04:05:30;;;;;;;9.40;3.28;;;15.60;99.90;;;;;;6270672;22;20100;-83
2023/07/30 04:07:56;;;;;;;8.57;3.20;;;15.50;99.90;;;;;;6270591;22;20159;-83
2023/07/30 04:10:22;;;;;;;11.80;3.13;;;15.50;99.90;;;;;;6270703;22;20042;-84
2023/07/30 04:12:48;;;;;;;8.98;3.50;;;15.60;99.90;;;;;;6270552;22;20023;-84
2023/07/30 04:15:16;;;;;;;11.50;3.42;;;15.60;99.90;;;;;;6269890;22;20061;-83
2023/07/30 04:17:42;;;;;;;8.25;3.30;;;15.60;99.90;;;;;;6270067;22;20030;-85
2023/07/30 04:20:11;;;;;;;8.88;3.40;;;15.60;99.90;;;;;;6270228;22;20032;-83
2023/07/30 04:22:37;;;;;;;15.50;3.70;;;15.60;99.90;;;;;;6270364;22;20446;-83
2023/07/30 04:25:04;;;;;;;7.47;3.60;;;15.60;99.90;;;;;;6272057;22;20012;-83
2023/07/30 04:27:29;;;;;;;9.88;3.63;;;15.60;99.90;;;;;;6272474;22;20016;-84
2023/07/30 04:29:55;;;;;;;15.13;3.58;;;15.60;99.90;;;;;;6270146;22;20026;-82
2023/07/30 04:32:21;;;;;;;7.65;3.30;;;15.60;99.90;;;;;;6272576;22;20028;-82
2023/07/30 04:34:47;;;;;;;10.18;3.47;;;15.50;99.90;;;;;;6270254;22;20025;-81
2023/07/30 04:37:12;;;;;;;11.90;3.17;;;15.60;99.90;;;;;;6272257;22;20449;-83
2023/07/30 04:39:38;;;;;;;10.38;3.40;;;15.60;99.90;;;;;;6270926;22;20461;-84
2023/07/30 04:42:04;;;;;;;11.73;3.90;;;15.60;99.90;;;;;;6272134;22;20043;-81
2023/07/30 04:44:30;;;;;;;10.52;3.38;;;15.60;99.90;;;;;;6269474;22;20619;-83
2023/07/30 04:46:55;;;;;;;7.72;3.25;;;15.60;99.90;;;;;;6269871;22;20022;-82
2023/07/30 04:49:21;;;;;;;11.10;3.75;;;15.60;99.90;;;;;;6271971;22;20024;-82
2023/07/30 04:51:47;;;;;;;8.50;3.42;;;15.60;99.90;;;;;;6269824;22;20063;-82
2023/07/30 04:54:12;;;;;;;15.55;4.55;;;15.70;99.90;;;;;;6271960;22;20019;-82
2023/07/30 04:56:38;;;;;;;8.38;3.60;;;15.70;99.90;;;;;;6272223;22;20012;-81
2023/07/30 04:59:04;;;;;;;10.93;3.65;;;15.70;99.90;;;;;;6271948;22;20391;-82
2023/07/30 05:01:31;;;;;;;12.38;4.10;;;15.60;99.90;;;;;;6271873;22;20051;-82
2023/07/30 05:03:56;;;;;;;10.15;3.72;;;15.70;99.90;;;;;;6270400;22;20351;-83
2023/07/30 05:06:23;;;;;;;10.15;3.50;;;15.60;99.90;;;;;;6270581;22;20023;-81
2023/07/30 05:08:48;;;;;;;10.40;3.75;;;15.70;99.90;;;;;;6272050;22;20019;-83
2023/07/30 05:11:14;;;;;;;12.57;3.90;;;15.70;99.90;;;;;;6272399;22;20026;-83
2023/07/30 05:13:40;;;;;;;11.25;3.90;;;15.70;99.90;;;;;;6271977;22;20340;-83
2023/07/30 05:16:06;;;;;;;10.00;3.42;;;15.80;99.90;;;;;;6272614;22;20016;-83
2023/07/30 05:18:32;;;;;;;15.77;4.38;;;15.80;99.90;;;;;;6272373;22;20577;-84
2023/07/30 05:20:57;;;;;;;8.93;3.63;;;15.80;99.90;;;;;;6270015;22;20082;-84
2023/07/30 05:23:23;;;;;;;13.75;3.67;;;15.80;99.90;;;;;;6270168;22;20019;-80
2023/07/30 05:25:49;;;;;;;12.52;3.78;;;15.90;99.90;;;;;;6272195;22;20085;-84
2023/07/30 05:28:16;;;;;;;13.57;4.30;;;15.90;99.90;;;;;;6271586;22;20024;-84
2023/07/30 05:30:41;;;;;;;10.85;3.85;;;15.90;99.90;;;;;;6269956;22;20022;-85
2023/07/30 05:33:07;;;;;;;10.25;4.53;;;16.00;99.90;;;;;;6269970;22;20058;-84
2023/07/30 05:35:33;;;;;;;21.75;3.97;;;16.00;99.90;;;;;;6271941;22;20019;-84
2023/07/30 05:37:59;;;;;;;14.32;3.70;;;16.10;99.90;;;;;;6271872;22;20015;-84
2023/07/30 05:40:25;;;;;;;17.35;3.95;;;16.10;99.90;;;;;;6270439;22;20020;-85
2023/07/30 05:42:51;;;;;;;9.90;3.92;;;16.10;99.90;;;;;;6271652;22;20026;-85
2023/07/30 05:45:16;;;;;;;13.70;4.10;;;16.10;99.90;;;;;;6269533;22;20043;-85
2023/07/30 05:47:42;;;;;;;14.30;3.92;;;16.10;99.90;;;;;;6271553;22;20020;-85
2023/07/30 05:50:08;;;;;;;9.68;3.58;;;16.20;99.90;;;;;;6270060;22;20023;-85
2023/07/30 05:52:34;;;;;;;17.80;4.15;;;16.20;99.90;;;;;;6269884;22;20380;-85
2023/07/30 05:54:59;;;;;;;13.02;3.72;;;16.20;99.90;;;;;;6271456;22;20090;-84
2023/07/30 05:57:25;;;;;;;13.95;4.10;;;16.30;99.90;;;;;;6271559;22;20114;-85
2023/07/30 05:59:51;;;;;;;17.77;4.72;;;16.10;99.90;;;;;;6271936;22;20106;-85
2023/07/30 06:02:17;;;;;;;11.05;4.13;;;16.30;99.90;;;;;;6273665;22;20155;-85
2023/07/30 06:04:43;;;;;;;11.68;4.60;;;16.30;99.90;;;;;;6271752;22;20059;-85
2023/07/30 06:07:10;;;;;;;15.48;3.65;;;16.30;99.90;;;;;;6273472;22;20043;-85
2023/07/30 06:09:36;;;;;;;12.00;3.67;;;16.40;99.90;;;;;;6274053;22;20031;-84
2023/07/30 06:12:02;;;;;;;10.00;4.20;;;16.40;99.90;;;;;;6273810;22;20087;-85
2023/07/30 06:14:28;;;;;;;17.33;4.38;;;16.40;99.90;;;;;;6273637;22;20076;-85
2023/07/30 06:16:54;;;;;;;14.30;5.20;;;16.40;99.90;;;;;;6270967;22;20072;-85
2023/07/30 06:19:19;;;;;;;24.90;4.30;;;16.50;99.90;;;;;;6271697;22;20053;-85
2023/07/30 06:21:45;;;;;;;16.15;4.45;;;16.60;99.90;;;;;;6273307;22;20023;-85
2023/07/30 06:24:11;;;;;;;16.40;4.25;;;16.60;99.90;;;;;;6273010;22;20043;-85
2023/07/30 06:26:36;;;;;;;17.85;4.38;;;16.70;99.90;;;;;;6270897;22;20126;-87
2023/07/30 06:29:02;;;;;;;15.35;4.18;;;16.70;99.90;;;;;;6271867;22;20031;-88
2023/07/30 06:31:28;;;;;;;17.95;4.20;;;16.70;99.90;;;;;;6272089;22;20016;-89
2023/07/30 06:33:54;;;;;;;16.92;4.80;;;16.80;99.90;;;;;;6272546;22;20126;-88
2023/07/30 06:36:19;;;;;;;17.77;4.88;;;16.80;99.90;;;;;;6271925;22;20358;-87
2023/07/30 06:38:45;;;;;;;22.02;5.07;;;16.90;99.90;;;;;;6271705;22;20024;-78
2023/07/30 06:41:11;;;;;;;19.38;5.13;;;16.90;99.90;;;;;;6273944;22;20039;-85
2023/07/30 06:43:36;;;;;;;20.38;4.65;;;16.90;99.90;;;;;;6271812;22;20114;-85
2023/07/30 06:46:02;;;;;;;20.40;5.00;;;16.90;99.90;;;;;;6277517;22;20058;-86
2023/07/30 06:48:28;;;;;;;17.83;5.25;;;17.00;99.90;;;;;;6279157;22;20157;-86
2023/07/30 06:50:53;;;;;;;16.17;4.85;;;17.00;99.90;;;;;;6278235;22;20023;-85
2023/07/30 06:53:19;;;;;;;19.23;4.93;;;17.10;99.90;;;;;;6278763;22;20023;-84
2023/07/30 06:55:45;;;;;;;26.08;4.95;;;17.10;99.90;;;;;;6253053;22;20098;-85
2023/07/30 06:58:11;;;;;;;13.98;4.80;;;17.10;99.90;;;;;;6276778;22;20026;-86
2023/07/30 07:00:37;;;;;;;21.73;5.28;;;17.20;99.90;;;;;;6271461;22;20020;-86
2023/07/30 07:03:03;;;;;;;18.98;5.28;;;17.20;99.90;;;;;;6273288;22;20140;-86
2023/07/30 07:05:29;;;;;;;14.88;4.72;;;17.20;99.90;;;;;;6273295;22;20050;-86
2023/07/30 07:07:55;;;;;;;17.15;5.30;;;17.30;99.90;;;;;;6270993;22;20542;-86
2023/07/30 07:10:21;;;;;;;15.48;4.70;;;17.30;99.90;;;;;;6271126;22;20034;-85
2023/07/30 07:12:50;;;;;;;17.70;4.75;;;17.40;99.90;;;;;;6271380;22;20439;-85
2023/07/30 07:15:15;;;;;;;23.75;4.93;;;17.50;99.90;;;;;;6270993;22;20019;-85
2023/07/30 07:17:41;;;;;;;18.60;4.80;;;17.60;99.90;;;;;;6274009;22;20110;-85
2023/07/30 07:20:07;;;;;;;23.23;5.30;;;17.60;99.90;;;;;;6271658;22;20090;-85
2023/07/30 07:22:34;;;;;;;18.35;4.40;;;17.70;99.90;;;;;;6270983;22;20019;-85
2023/07/30 07:24:59;;;;;;;16.17;4.85;;;17.60;99.90;;;;;;6270834;22;20047;-85
2023/07/30 07:27:25;;;;;;;18.17;5.05;;;17.60;99.90;;;;;;6271265;22;20023;-85
2023/07/30 07:29:52;;;;;;;15.27;4.80;;;17.70;99.90;;;;;;6271283;22;20439;-85
2023/07/30 07:32:18;;;;;;;17.88;4.75;;;17.70;99.90;;;;;;6273435;22;20023;-85
2023/07/30 07:34:48;;;;;;;19.67;4.88;;;17.60;99.90;;;;;;6271369;22;20055;-84
2023/07/30 07:37:18;;;;;;;15.35;4.72;;;17.70;99.90;;;;;;6271091;22;20047;-84
2023/07/30 07:39:45;;;;;;;14.70;4.38;;;17.70;99.90;;;;;;6271213;22;20023;-86
2023/07/30 07:42:11;;;;;;;19.13;4.82;;;17.70;99.90;;;;;;6271940;22;20023;-87
2023/07/30 07:44:37;;;;;;;13.05;4.50;;;17.70;99.90;;;;;;6271110;22;20027;-87
2023/07/30 07:47:03;;;;;;;22.77;5.93;;;17.70;99.90;;;;;;6273615;22;20019;-86
2023/07/30 07:49:28;;;;;;;18.17;5.28;;;17.80;99.90;;;;;;6273385;22;20111;-83
2023/07/30 07:51:54;;;;;;;16.88;5.43;;;17.90;99.90;;;;;;6270597;22;20055;-83
2023/07/30 07:54:20;;;;;;;18.33;5.63;;;18.00;99.90;;;;;;6270904;22;20049;-83
2023/07/30 07:56:45;;;;;;;14.82;4.85;;;18.20;99.90;;;;;;6272663;22;20023;-84
2023/07/30 07:59:11;;;;;;;23.10;6.60;;;18.40;99.90;;;;;;6271680;22;20447;-85
2023/07/30 08:01:37;;;;;;;16.13;5.20;;;18.50;99.90;;;;;;6271381;22;20098;-87
2023/07/30 08:04:02;;;;;;;25.67;5.47;;;18.40;99.90;;;;;;6270948;22;20059;-86
2023/07/30 08:06:28;;;;;;;17.77;5.03;;;18.50;99.90;;;;;;6270316;22;20027;-85
2023/07/30 08:08:54;;;;;;;18.92;5.32;;;18.70;99.90;;;;;;6270040;22;20034;-86
2023/07/30 08:11:20;;;;;;;13.27;5.10;;;18.80;99.90;;;;;;6270474;22;20023;-86
2023/07/30 08:13:45;;;;;;;18.55;5.65;;;18.80;99.90;;;;;;6270144;22;20106;-88
2023/07/30 08:16:11;;;;;;;13.73;4.95;;;18.90;99.90;;;;;;6271120;22;20035;-89
2023/07/30 08:18:37;;;;;;;20.77;4.85;;;19.00;99.90;;;;;;6272500;22;20015;-87
2023/07/30 08:21:03;;;;;;;15.25;4.50;;;19.10;99.90;;;;;;6272245;22;20020;-90
2023/07/30 08:23:29;;;;;;;15.27;4.38;;;19.30;99.90;;;;;;6273240;22;20020;-86
2023/07/30 08:25:54;;;;;;;18.42;4.65;;;19.40;99.90;;;;;;6270282;22;20020;-85
2023/07/30 08:28:20;;;;;;;17.33;3.90;;;19.50;99.90;;;;;;6272673;22;20051;-86
2023/07/30 08:30:46;;;;;;;19.48;4.00;;;19.50;99.90;;;;;;6272138;22;20154;-85
2023/07/30 08:33:12;;;;;;;22.35;4.68;;;19.50;99.90;;;;;;6270261;22;20081;-85
2023/07/30 08:35:38;;;;;;;16.73;4.25;;;19.50;99.90;;;;;;6270027;22;20423;-84
2023/07/30 08:38:04;;;;;;;9.13;3.38;;;19.70;99.90;;;;;;6272127;22;20011;-85
2023/07/30 08:40:29;;;;;;;13.10;2.97;;;19.70;99.90;;;;;;6270788;22;20034;-85
2023/07/30 08:42:55;;;;;;;13.88;3.38;;;19.70;99.90;;;;;;6269689;22;20015;-86
2023/07/30 08:45:21;;;;;;;14.02;3.35;;;19.90;99.90;;;;;;6270265;22;20030;-86
2023/07/30 08:47:47;;;;;;;16.75;3.63;;;19.90;99.90;;;;;;6270281;22;20051;-87
2023/07/30 08:50:14;;;;;;;10.05;3.20;;;20.00;99.90;;;;;;6270020;22;20455;-85
2023/07/30 08:52:40;;;;;;;14.35;4.13;;;19.90;99.90;;;;;;6271705;22;20094;-86
2023/07/30 08:55:06;;;;;;;13.13;3.40;;;19.80;99.90;;;;;;6272027;22;20078;-86
2023/07/30 08:57:33;;;;;;;12.30;3.42;;;19.80;99.90;;;;;;6271185;22;20609;-86
2023/07/30 09:00:10;;;;;;;12.07;3.80;;;19.80;99.90;;;;;;6269875;22;20398;-86
2023/07/30 09:02:49;;;;;;;17.23;4.97;;;19.70;99.90;;;;;;6271516;22;20098;-85
2023/07/30 09:05:15;;;;;;;16.67;4.43;;;19.70;99.90;;;;;;6269791;22;20023;-86
2023/07/30 09:07:41;;;;;;;13.38;3.90;;;19.70;99.90;;;;;;6269432;22;20027;-85
2023/07/30 09:10:07;;;;;;;14.02;4.18;;;19.70;99.90;;;;;;6270000;22;20023;-85
2023/07/30 09:12:34;;;;;;;15.70;4.82;;;19.70;99.90;;;;;;6269903;22;20055;-90
2023/07/30 09:15:06;;;;;;;12.18;4.20;;;19.60;99.90;;;;;;6270065;22;20109;-88
2023/07/30 09:17:32;;;;;;;10.23;3.33;;;19.70;99.90;;;;;;6271753;22;20023;-89
2023/07/30 09:20:03;;;;;;;16.67;3.47;;;19.70;99.90;;;;;;6273168;22;20026;-90
2023/07/30 09:22:33;;;;;;;13.40;5.03;;;19.70;99.90;;;;;;6271013;22;20019;-90
2023/07/30 09:25:02;;;;;;;12.48;3.72;;;19.70;99.90;;;;;;6270408;22;20386;-88
2023/07/30 09:27:28;;;;;;;14.25;3.40;;;19.70;99.90;;;;;;6270048;22;20070;-88
2023/07/30 09:29:55;;;;;;;13.07;3.35;;;19.70;99.90;;;;;;6272405;22;20357;-88
2023/07/30 09:32:26;;;;;;;13.35;3.53;;;19.70;99.90;;;;;;6272018;22;20073;-88
2023/07/30 09:34:52;;;;;;;14.80;3.33;;;19.70;99.90;;;;;;6271879;22;20087;-89
2023/07/30 09:37:18;;;;;;;11.60;3.10;;;19.50;99.90;;;;;;6270021;22;20046;-87
2023/07/30 09:39:43;;;;;;;14.80;3.38;;;19.60;99.90;;;;;;6270418;22;20107;-89
2023/07/30 09:42:09;;;;;;;12.38;3.00;;;19.60;99.90;;;;;;6272473;22;20338;-88
2023/07/30 09:44:37;;;;;;;10.07;3.10;;;19.50;99.90;;;;;;6269849;22;20102;-89
2023/07/30 09:47:05;;;;;;;14.02;3.90;;;19.50;99.90;;;;;;6270381;22;20085;-89
2023/07/30 09:49:31;;;;;;;13.52;3.17;;;19.40;99.90;;;;;;6272084;22;20051;-89
2023/07/30 09:51:58;;;;;;;16.13;3.08;;;19.40;99.90;;;;;;6269624;22;20023;-88
2023/07/30 09:54:24;;;;;;;10.00;2.90;;;19.40;99.90;;;;;;6272276;22;20008;-87
2023/07/30 09:56:49;;;;;;;9.68;2.90;;;19.30;99.90;;;;;;6270173;22;20023;-86
2023/07/30 09:59:15;;;;;;;16.48;3.60;;;19.10;99.90;;;;;;6272302;22;20016;-86
2023/07/30 10:01:49;;;;;;;11.38;3.83;;;19.00;99.90;;;;;;6270001;22;20403;-86
2023/07/30 10:04:17;;;;;;;12.05;3.80;;;19.00;99.90;;;;;;6271271;22;20053;-86
2023/07/30 10:06:57;;;;;;;11.70;4.03;;;18.90;99.90;;;;;;6271814;22;20020;-86
2023/07/30 10:09:28;;;;;;;14.05;3.15;;;19.00;99.90;;;;;;6270078;22;20027;-86
2023/07/30 10:11:54;;;;;;;7.07;1.80;;;18.90;99.90;;;;;;6269616;22;20080;-85
2023/07/30 10:14:23;;;;;;;10.00;2.40;;;18.90;99.90;;;;;;6269621;22;20023;-85
2023/07/30 10:17:00;;;;;;;5.30;1.80;;;18.80;99.90;;;;;;6270624;22;20416;-85
2023/07/30 10:19:26;;;;;;;5.38;1.90;;;18.80;99.90;;;;;;6272083;22;20016;-85
2023/07/30 10:22:21;;;;;;;9.20;1.75;;;18.90;99.90;;;;;;6271489;22;20405;-85
2023/07/30 10:25:02;;;;;;;5.43;1.75;;;18.90;99.90;;;;;;6271202;22;20012;-84
2023/07/30 10:27:40;;;;;;;4.82;1.60;;;18.90;99.90;;;;;;6271023;22;20023;-86
2023/07/30 10:30:17;;;;;;;2.92;1.35;;;18.80;99.90;;;;;;6269719;22;20062;-85
2023/07/30 10:32:59;;;;;;;10.65;1.67;;;18.70;99.90;;;;;;6271284;22;20047;-85
2023/07/30 10:35:43;;;;;;;5.00;1.77;;;18.70;99.90;;;;;;6271244;22;20055;-80
2023/07/30 10:38:27;;;;;;;12.30;2.95;;;18.60;99.90;;;;;;6269263;22;20027;-85
2023/07/30 10:41:07;;;;;;;11.02;2.20;;;18.50;99.90;;;;;;6269511;22;20019;-83
2023/07/30 10:43:48;;;;;;;10.55;1.98;;;18.40;99.90;;;;;;6270170;22;20070;-75
2023/07/30 10:46:16;;;;;;;5.88;1.90;;;18.30;99.90;;;;;;6272716;22;20024;-86
2023/07/30 10:48:43;;;;;;;9.88;2.60;;;18.10;99.90;;;;;;6273317;22;20023;-72
2023/07/30 10:51:11;;;;;;;7.22;2.00;;;18.00;99.90;;;;;;6270463;22;20075;-82
2023/07/30 10:53:36;;;;;;;5.25;1.77;;;17.90;99.90;;;;;;6272176;22;20023;-80
2023/07/30 10:56:06;;;;;;;7.80;1.95;;;17.90;99.90;;;;;;6270255;22;20031;-76
2023/07/30 10:58:34;;;;;;;12.32;2.92;;;17.90;99.90;;;;;;6271885;22;20018;-77
2023/07/30 11:01:03;;;;;;;9.00;2.55;;;18.10;99.90;;;;;;6269822;22;20095;-78
2023/07/30 11:03:31;;;;;;;11.45;2.28;;;18.20;99.90;;;;;;6272563;22;20082;-79
2023/07/30 11:05:57;;;;;;;10.43;2.72;;;18.30;99.90;;;;;;6270886;22;20116;-80
2023/07/30 11:08:42;;;;;;;9.35;2.42;;;18.50;99.90;;;;;;6270769;22;20032;-81
2023/07/30 11:11:10;;;;;;;12.85;3.05;;;18.70;99.90;;;;;;6270976;22;20028;-82
2023/07/30 11:13:37;;;;;;;8.18;2.55;;;18.80;99.90;;;;;;6272929;22;20026;-83
2023/07/30 11:16:04;;;;;;;15.00;3.40;;;18.80;99.90;;;;;;6270984;22;20023;-83
2023/07/30 11:18:34;;;;;;;7.03;2.55;;;18.80;99.90;;;;;;6271437;22;20576;-82
2023/07/30 11:21:04;;;;;;;10.93;2.42;;;19.00;99.90;;;;;;6270908;22;20016;-82
2023/07/30 11:23:30;;;;;;;9.70;2.15;;;19.10;99.90;;;;;;6270953;22;20062;-85
2023/07/30 11:25:56;;;;;;;9.40;1.80;;;19.20;99.90;;;;;;6270417;22;20027;-85
2023/07/30 11:28:32;;;;;;;7.75;2.10;;;19.30;99.90;;;;;;6271113;22;20027;-84
2023/07/30 11:31:09;;;;;;;7.50;2.35;;;19.30;99.90;;;;;;6271886;22;20019;-86
2023/07/30 11:33:46;;;;;;;5.07;1.98;;;19.40;99.90;;;;;;6271293;22;20101;-86
2023/07/30 11:36:19;;;;;;;4.43;1.42;;;19.40;99.90;;;;;;6271855;22;20022;-85
2023/07/30 11:38:46;;;;;;;11.63;1.67;;;19.50;99.90;;;;;;6245008;22;20024;-86
2023/07/30 11:41:12;;;;;;;5.63;1.80;;;19.60;99.90;;;;;;6271325;22;20032;-86
2023/07/30 11:43:41;;;;;;;5.28;1.60;;;19.60;99.90;;;;;;6245821;22;20058;-86
2023/07/30 11:46:08;;;;;;;6.95;2.03;;;19.70;99.90;;;;;;6273831;22;20351;-87
2023/07/30 11:48:35;;;;;;;9.02;2.10;;;19.80;99.90;;;;;;6272033;22;20034;-87
2023/07/30 11:51:01;;;;;;;5.68;1.50;;;19.80;99.90;;;;;;6272252;22;20023;-87
2023/07/30 11:53:47;;;;;;;7.88;1.65;;;19.90;99.90;;;;;;6273968;22;20509;-88
2023/07/30 11:56:24;;;;;;;8.38;1.60;;;19.90;99.90;;;;;;6274163;22;20055;-88
2023/07/30 11:58:51;;;;;;;7.72;1.67;;;20.00;99.90;;;;;;6271791;22;20015;-88
2023/07/30 12:01:17;;;;;;;8.70;1.95;;;20.00;99.90;;;;;;6271609;22;20015;-88
2023/07/30 12:03:44;;;;;;;7.68;1.40;;;20.00;99.90;;;;;;6274684;22;20085;-85
2023/07/30 12:06:10;;;;;;;6.18;1.30;;;20.10;99.90;;;;;;6272166;22;20055;-88
2023/07/30 12:08:36;;;;;;;5.55;1.33;;;20.20;99.90;;;;;;6271475;22;20028;-88
2023/07/30 12:11:03;;;;;;;9.32;1.73;;;20.20;99.90;;;;;;6274067;22;20091;-87
2023/07/30 12:13:29;;;;;;;7.80;1.52;;;20.20;99.90;;;;;;6271503;22;20024;-87
2023/07/30 12:15:56;;;;;;;6.53;1.83;;;20.30;99.90;;;;;;6271091;22;20050;-87
2023/07/30 12:18:23;;;;;;;9.13;2.15;;;20.40;99.90;;;;;;6272641;22;20086;-87
2023/07/30 12:20:50;;;;;;;5.65;1.48;;;20.40;99.90;;;;;;6272699;22;20386;-87
2023/07/30 12:23:17;;;;;;;5.13;1.20;;;20.50;99.90;;;;;;6271152;22;20058;-88
2023/07/30 12:25:42;;;;;;;6.43;1.20;;;20.50;99.90;;;;;;6270412;22;20111;-87
2023/07/30 12:28:08;;;;;;;7.53;1.40;;;20.50;99.90;;;;;;6272861;22;20016;-86
2023/07/30 12:30:35;;;;;;;11.55;1.63;;;20.50;99.90;;;;;;6245413;22;20066;-87
2023/07/30 12:33:01;;;;;;;5.28;1.65;;;20.60;99.90;;;;;;6271186;22;20031;-86
2023/07/30 12:35:27;;;;;;;6.38;1.45;;;20.60;99.90;;;;;;6270789;22;20297;-87
2023/07/30 12:37:52;;;;;;;6.38;1.73;;;20.60;99.90;;;;;;6270850;22;20098;-87
2023/07/30 12:40:18;;;;;;;10.68;1.70;;;20.60;99.90;;;;;;6271028;22;20115;-87